• Join FlightAware (Why Join?)
  • Login
  • US Flag 
04:12PM EST


 

Airport Tracker/Info


-or-


 

Live Flight TrackerFlight Track Log ✈ AAL1583 ✈ 15-Jun-2014 ✈ KDFW - KDEN

Flight Track Log - Related Links

Times and Time Zones

All times are in EDT time to prevent confusion due to time zone crossing. See the AAL1583 flight status page for this flight to view local times or setup timezone preferences in your user account.

Time Position Orientation Groundspeed Altitude Reporting Facility
EDT Latitude Longitude Course Direction KTS MPH feet Rate Location/Type
08:02PM 32.8714 -97.0304 112° Southeast 253 291 4,600  Level FlightAware ADS-B (KAFW)
08:04PM 32.7743 -96.9709 112° Southeast 253 291 4,800 360 Climbing FlightAware ADS-B (KAFW)
08:04PM 32.7664 -96.9401 103° East 263 303 5,500 2,220 Climbing FlightAware ADS-B (KAFW)
08:05PM 32.7751 -96.8592 66° East 288 331 7,400 2,340 Climbing FlightAware ADS-B (KAFW)
08:05PM 32.7841 -96.8434 51° Northeast 295 339 7,900 2,220 Climbing FlightAware ADS-B (KAFW)
08:06PM 32.7960 -96.8309 43° Northeast 297 342 8,500 2,040 Climbing FlightAware ADS-B (KAFW)
08:06PM 32.8759 -96.8086 North 320 368 10,300 1,560 Climbing FlightAware ADS-B (KAFW)
08:07PM 32.9022 -96.8084 359° North 342 394 10,400 480 Climbing FlightAware ADS-B (KAFW)
08:07PM 32.9661 -96.8106 356° North 383 441 10,800 1,320 Climbing FlightAware ADS-B (KAFW)
08:08PM 32.9921 -96.8186 339° North 380 437 11,500 2,880 Climbing FlightAware ADS-B (KAFW)
08:08PM 33.0221 -96.8404 322° Northwest 376 433 12,400 2,220 Climbing FlightAware ADS-B (KAFW)
08:09PM 33.0671 -96.8841 321° Northwest 375 432 13,800 2,400 Climbing FlightAware ADS-B (KAFW)
08:09PM 33.1282 -96.9369 329° Northwest 386 444 15,700 2,340 Climbing FlightAware ADS-B (KAFW)
08:10PM 33.1908 -96.9792 330° Northwest 401 461 17,000 2,280 Climbing FlightAware ADS-B (KAFW)
08:11PM 33.2697 -97.0320 330° Northwest 407 468 19,100 2,280 Climbing FlightAware ADS-B (KAFW)
08:11PM 33.3258 -97.0695 330° Northwest 411 473 20,500 2,100 Climbing FlightAware ADS-B (KAFW)
08:12PM 33.4012 -97.1203 330° Northwest 419 482 22,000 1,860 Climbing FlightAware ADS-B (KAFW)
08:13PM 33.4908 -97.1808 330° Northwest 437 503 23,300 1,680 Climbing FlightAware ADS-B (KAFW)
08:14PM 33.5847 -97.2436 330° Northwest 430 495 25,100 1,740 Climbing Fort Worth Center
08:15PM 33.7125 -97.3297 331° Northwest 437 503 26,900 1,440 Climbing Fort Worth Center
08:16PM 33.8222 -97.4053 330° Northwest 453 521 28,100 1,500 Climbing Fort Worth Center
08:17PM 33.9344 -97.4825 330° Northwest 462 532 30,000 1,680 Climbing Fort Worth Center
08:18PM 34.0439 -97.5561 331° Northwest 456 525 31,600 1,500 Climbing Fort Worth Center
08:19PM 34.1642 -97.6447 329° Northwest 457 526 33,200 1,440 Climbing Fort Worth Center
08:20PM 34.2747 -97.7206 330° Northwest 456 525 34,600 1,320 Climbing Fort Worth Center
08:21PM 34.3831 -97.7936 331° Northwest 447 514 36,000 660 Climbing Fort Worth Center
08:22PM 34.4914 -97.8683 330° Northwest 445 512 36,000  Level Fort Worth Center
08:23PM 34.5978 -97.9444 330° Northwest 445 512 36,000  Level Fort Worth Center
08:24PM 34.7278 -98.0333 331° Northwest 445 512 36,000  Level Fort Worth Center
08:25PM 34.8342 -98.1097 329° Northwest 445 512 36,000  Level Fort Worth Center
08:26PM 34.9131 -98.2194 311° West 431 496 36,000  Level Fort Worth Center
08:27PM 34.9878 -98.3328 309° West 431 496 36,000  Level Fort Worth Center
08:28PM 35.0625 -98.4453 309° West 426 490 36,000 -60 Level Fort Worth Center
08:29PM 35.1406 -98.5658 308° West 426 490 35,900  Descending Fort Worth Center
08:30PM 35.2150 -98.6806 308° West 426 490 36,000  Climbing Fort Worth Center
08:32PM 35.2900 -98.7944 309° West 426 490 36,000  Level Fort Worth Center
08:37PM 35.7027 -99.4392 308° West 424 488 36,000  Level FlightAware ADS-B (KBFK)
08:38PM 35.8029 -99.5621 318° Northwest 425 489 36,000  Level FlightAware ADS-B (KBFK)
08:39PM 35.8486 -99.6125 319° Northwest 425 489 36,000  Level FlightAware ADS-B (KBFK)
08:39PM 35.8868 -99.6543 319° Northwest 424 488 36,000  Level FlightAware ADS-B (KBFK)
08:40PM 35.9571 -99.7329 318° Northwest 422 486 36,000  Level FlightAware ADS-B (KBFK)
08:40PM 35.9819 -99.7605 318° Northwest 422 486 36,000  Level FlightAware ADS-B (KBFK)
08:41PM 36.0510 -99.8366 318° Northwest 421 484 36,000  Level FlightAware ADS-B (KBFK)
08:41PM 36.0688 -99.8564 318° Northwest 421 484 36,000  Level FlightAware ADS-B (KBFK)
08:42PM 36.1377 -99.9339 318° Northwest 420 483 36,000  Level FlightAware ADS-B (KBFK)
08:42PM 36.1490 -99.9467 318° Northwest 419 482 36,000  Level FlightAware ADS-B (KBFK)
08:43PM 36.1947 -99.9984 318° Northwest 419 482 36,000  Level FlightAware ADS-B (KBFK)
08:43PM 36.2509 -100.0616 318° Northwest 417 480 36,000  Level FlightAware ADS-B (KBFK)
08:44PM 36.3001 -100.1172 318° Northwest 417 480 36,000  Level FlightAware ADS-B (KBFK)
08:44PM 36.3071 -100.1251 318° Northwest 417 480 36,000  Level FlightAware ADS-B (KBFK)
08:45PM 36.3833 -100.2075 318° Northwest 415 478 36,000 -60 Level Fort Worth Center
08:46PM 36.4711 -100.3031 319° Northwest 415 478 35,900  Descending Fort Worth Center
08:47PM 36.5528 -100.4039 315° West 414 476 36,000  Climbing Kansas City Center
08:48PM 36.6333 -100.4975 317° Northwest 414 476 36,000  Level Kansas City Center
08:49PM 36.7275 -100.6064 317° Northwest 413 475 36,000  Level Kansas City Center
08:50PM 36.8086 -100.6992 318° Northwest 413 475 36,000  Level Kansas City Center
08:51PM 36.9022 -100.8072 317° Northwest 413 475 36,000  Level Kansas City Center
08:52PM 36.9831 -100.9011 317° Northwest 413 475 36,000  Level Kansas City Center
08:53PM 37.0631 -100.9969 316° Northwest 413 475 36,000  Level Kansas City Center
08:54PM 37.1467 -101.1228 310° West 417 480 36,000  Level Kansas City Center
08:55PM 37.2200 -101.2275 311° West 417 480 36,000  Level Kansas City Center
08:56PM 37.3056 -101.3536 310° West 417 480 36,000  Level Kansas City Center
08:57PM 37.3792 -101.4611 311° West 418 481 36,000  Level Kansas City Center
08:58PM 37.4636 -101.5853 311° West 418 481 36,000 -300 Level Kansas City Center
08:59PM 37.5347 -101.6925 310° West 418 481 35,400 -840 Descending Kansas City Center
09:00PM 37.6192 -101.8169 311° West 418 481 34,300 -720 Descending Kansas City Center
09:01PM 37.6922 -101.9250 311° West 418 481 34,000 -180 Descending Kansas City Center
09:02PM 37.7678 -102.0314 312° West 420 483 34,000 -300 Level Kansas City Center
09:09PM 38.2734 -102.7242 312° West 427 491 32,000 -360 Descending FlightAware ADS-B (KEIK)
09:09PM 38.3141 -102.7807 313° West 410 472 32,000  Level FlightAware ADS-B (KEIK)
09:10PM 38.3587 -102.8428 312° West 394 453 32,000  Level FlightAware ADS-B (KEIK)
09:10PM 38.3972 -102.8970 312° West 392 451 32,000  Level FlightAware ADS-B (KEIK)
09:11PM 38.4488 -102.9692 312° West 390 449 32,000  Level FlightAware ADS-B (KEIK)
09:12PM 38.4949 -103.0335 312° West 388 447 32,000  Level FlightAware ADS-B (KEIK)
09:12PM 38.5430 -103.1010 312° West 387 445 32,000  Level FlightAware ADS-B (KEIK)
09:13PM 38.5984 -103.1792 312° West 411 473 32,000  Level FlightAware ADS-B (KEIK)
09:13PM 38.6383 -103.2351 312° West 416 479 32,000  Level FlightAware ADS-B (KEIK)
09:14PM 38.6779 -103.2910 312° West 416 479 32,000  Level FlightAware ADS-B
09:15PM 38.7428 -103.3831 312° West 417 480 32,000  Level FlightAware ADS-B (KBJC)
09:16PM 38.7880 -103.4473 312° West 416 479 32,000 -120 Level FlightAware ADS-B (KEIK)
09:16PM 38.8360 -103.5157 312° West 414 476 31,900 -720 Descending FlightAware ADS-B (KEIK)
09:17PM 38.8736 -103.5691 312° West 410 472 31,300 -1,020 Descending FlightAware ADS-B (KEIK)
09:17PM 38.9097 -103.6208 312° West 405 466 30,900 -1,200 Descending FlightAware ADS-B (KEIK)
09:18PM 38.9483 -103.6761 312° West 397 457 30,100 -1,920 Descending FlightAware ADS-B (KEIK)
09:18PM 38.9875 -103.7322 312° West 388 447 29,000 -2,220 Descending FlightAware ADS-B (KEIK)
09:19PM 39.0243 -103.7849 312° West 392 451 27,900 -2,100 Descending FlightAware ADS-B (KANK)
09:19PM 39.0668 -103.8464 312° West 383 441 26,600 -2,100 Descending FlightAware ADS-B
09:20PM 39.1035 -103.8993 312° West 378 435 25,500 -2,220 Descending FlightAware ADS-B (KEIK)
09:20PM 39.1390 -103.9504 312° West 370 426 24,400 -2,160 Descending FlightAware ADS-B (KEIK)
09:21PM 39.1850 -104.0161 312° West 361 415 23,000 -1,860 Descending FlightAware ADS-B (KEIK)
09:21PM 39.2186 -104.0643 312° West 349 402 22,200 -1,320 Descending FlightAware ADS-B (KEIK)
09:22PM 39.2500 -104.1088 315° West 335 386 21,600 -1,320 Descending FlightAware ADS-B
09:22PM 39.2627 -104.1238 321° Northwest 334 384 21,300 -1,080 Descending FlightAware ADS-B (KBJC)
09:22PM 39.2825 -104.1425 328° Northwest 328 377 21,200 -660 Descending FlightAware ADS-B (KANK)
09:23PM 39.3224 -104.1750 328° Northwest 312 359 20,800 -1,080 Descending FlightAware ADS-B (KBJC)
09:23PM 39.3591 -104.2050 328° Northwest 307 353 20,100 -1,560 Descending FlightAware ADS-B (KBJC)
09:24PM 39.4011 -104.2391 328° Northwest 306 352 19,100 -1,860 Descending FlightAware ADS-B (KFLY)
09:25PM 39.4493 -104.2781 328° Northwest 307 353 17,800 -1,740 Descending FlightAware ADS-B (KFLY)
09:25PM 39.4861 -104.3083 327° Northwest 300 345 17,100 -720 Descending FlightAware ADS-B (KEIK)
09:26PM 39.5202 -104.3365 327° Northwest 295 339 17,100 -120 Level FlightAware ADS-B (KEIK)
09:26PM 39.5563 -104.3661 328° Northwest 275 316 17,000 -840 Descending FlightAware ADS-B
09:27PM 39.6014 -104.4030 328° Northwest 275 316 16,100 -1,500 Descending FlightAware ADS-B (KEIK)
09:27PM 39.6325 -104.4286 328° Northwest 272 313 15,300 -1,620 Descending FlightAware ADS-B (KBJC)
09:28PM 39.6664 -104.4562 328° Northwest 267 307 14,500 -1,440 Descending FlightAware ADS-B (KBJC)
09:28PM 39.6996 -104.4840 327° Northwest 269 310 13,800 -1,200 Descending FlightAware ADS-B (KEIK)
09:29PM 39.7260 -104.5059 328° Northwest 271 312 13,300 -1,020 Descending FlightAware ADS-B
09:29PM 39.7446 -104.5184 339° North 273 314 13,100 -900 Descending FlightAware ADS-B (KEIK)
09:29PM 39.7648 -104.5236 355° North 277 319 12,900 -780 Descending FlightAware ADS-B (KBJC)
09:30PM 39.7837 -104.5236 North 278 320 12,700 -900 Descending FlightAware ADS-B (KEIK)
09:30PM 39.8371 -104.5227 North 279 321 12,100 -960 Descending FlightAware ADS-B (KEIK)
09:31PM 39.8773 -104.5222 North 276 318 11,600 -900 Descending FlightAware ADS-B (KBJC)
09:31PM 39.9153 -104.5219 North 276 318 11,200 -660 Descending FlightAware ADS-B (KBJC)
09:32PM 39.9367 -104.5218 360° North 275 316 11,100 -780 Descending FlightAware ADS-B (KBJC)
09:32PM 39.9521 -104.5215 North 271 312 10,800 -1,200 Descending FlightAware ADS-B (KBJC)
09:33PM 39.9956 -104.5197 North 267 307 10,100 -1,320 Descending FlightAware ADS-B
09:33PM 40.0225 -104.5186 North 266 306 9,600 -1,500 Descending FlightAware ADS-B (KEIK)
09:33PM 40.0561 -104.5179 North 266 306 9,000 -1,620 Descending FlightAware ADS-B (KEIK)
09:33PM 40.0679 -104.5192 350° North 264 304 8,700 -1,440 Descending FlightAware ADS-B (KEIK)
09:34PM 40.0804 -104.5259 331° Northwest 263 303 8,500 -1,440 Descending FlightAware ADS-B (KEIK)
09:34PM 40.0867 -104.5323 313° West 260 299 8,200 -1,920 Descending FlightAware ADS-B (KEIK)
09:34PM 40.0937 -104.5444 300° West 257 296 8,000 -1,500 Descending FlightAware ADS-B (KEIK)
09:34PM 40.0981 -104.5646 278° West 249 287 7,700 -1,260 Descending FlightAware ADS-B (KEIK)
09:35PM 40.1000 -104.6084 267° West 246 283 7,100 -720 Descending FlightAware ADS-B (KEIK)
09:35PM 40.0932 -104.6309 230° Southwest 236 272 7,100  Level FlightAware ADS-B (KEIK)
09:35PM 40.0832 -104.6423 215° Southwest 232 267 7,100  Level FlightAware ADS-B (KEIK)
09:35PM 40.0652 -104.6576 213° Southwest 222 255 7,100  Level FlightAware ADS-B (KEIK)
09:36PM 40.0475 -104.6727 212° Southwest 210 242 7,100  Level FlightAware ADS-B (KEIK)
09:36PM 40.0395 -104.6778 204° Southwest 206 237 7,100  Level FlightAware ADS-B (KEIK)
09:36PM 40.0235 -104.6855 193° South 191 220 7,100  Level FlightAware ADS-B (KEIK)
09:36PM 40.0134 -104.6865 180° South 186 214 7,100  Level FlightAware ADS-B (KEIK)
09:37PM 39.9964 -104.6857 178° South 183 211 7,100 -180 Level FlightAware ADS-B (KEIK)
09:37PM 39.9837 -104.6856 180° South 188 216 7,000 -780 Descending FlightAware ADS-B (KEIK)
09:38PM 39.9391 -104.6863 181° South 159 183 6,200 -960 Descending FlightAware ADS-B (KEIK)
09:38PM 39.9255 -104.6865 181° South 162 186 5,900 -840 Descending FlightAware ADS-B (KEIK)
09:39PM 39.9042 -104.6868 180° South 164 189 5,400 -540 Descending FlightAware ADS-B
09:39PM 39.8841 -104.6870 180° South 135 155 5,400  Level FlightAware ADS-B